sensor_id;sensor_type;location;lat;lon;timestamp;P1;durP1;ratioP1;P2;durP2;ratioP2
54416;SDS011;40326;51.220;7.250;2023-01-31T00:02:23;21.95;;;7.63;;
54416;SDS011;40326;51.220;7.250;2023-01-31T00:04:49;20.40;;;6.25;;
54416;SDS011;40326;51.220;7.250;2023-01-31T00:07:14;30.35;;;6.45;;
54416;SDS011;40326;51.220;7.250;2023-01-31T00:09:39;23.37;;;6.50;;
54416;SDS011;40326;51.220;7.250;2023-01-31T00:12:04;23.83;;;6.25;;
54416;SDS011;40326;51.220;7.250;2023-01-31T00:14:30;34.90;;;7.00;;
54416;SDS011;40326;51.220;7.250;2023-01-31T00:16:55;22.08;;;6.10;;
54416;SDS011;40326;51.220;7.250;2023-01-31T00:19:20;22.25;;;6.40;;
54416;SDS011;40326;51.220;7.250;2023-01-31T00:21:45;21.83;;;6.45;;
54416;SDS011;40326;51.220;7.250;2023-01-31T00:24:11;29.52;;;6.55;;
54416;SDS011;40326;51.220;7.250;2023-01-31T00:26:37;26.25;;;7.28;;
54416;SDS011;40326;51.220;7.250;2023-01-31T00:29:02;22.77;;;6.25;;
54416;SDS011;40326;51.220;7.250;2023-01-31T00:31:29;21.85;;;5.90;;
54416;SDS011;40326;51.220;7.250;2023-01-31T00:33:56;25.83;;;6.22;;
54416;SDS011;40326;51.220;7.250;2023-01-31T00:36:22;19.35;;;5.05;;
54416;SDS011;40326;51.220;7.250;2023-01-31T00:38:48;15.07;;;5.03;;
54416;SDS011;40326;51.220;7.250;2023-01-31T00:41:13;21.13;;;5.13;;
54416;SDS011;40326;51.220;7.250;2023-01-31T00:43:39;30.67;;;6.03;;
54416;SDS011;40326;51.220;7.250;2023-01-31T00:46:04;20.55;;;5.50;;
54416;SDS011;40326;51.220;7.250;2023-01-31T00:48:29;19.23;;;4.90;;
54416;SDS011;40326;51.220;7.250;2023-01-31T00:50:55;21.90;;;5.28;;
54416;SDS011;40326;51.220;7.250;2023-01-31T00:53:20;21.48;;;5.22;;
54416;SDS011;40326;51.220;7.250;2023-01-31T00:55:50;24.30;;;5.40;;
54416;SDS011;40326;51.220;7.250;2023-01-31T00:58:15;23.67;;;5.20;;
54416;SDS011;40326;51.220;7.250;2023-01-31T01:00:40;22.50;;;5.90;;
54416;SDS011;40326;51.220;7.250;2023-01-31T01:03:06;20.70;;;5.22;;
54416;SDS011;40326;51.220;7.250;2023-01-31T01:05:31;16.35;;;5.95;;
54416;SDS011;40326;51.220;7.250;2023-01-31T01:07:56;18.83;;;5.32;;
54416;SDS011;40326;51.220;7.250;2023-01-31T01:10:21;22.67;;;4.90;;
54416;SDS011;40326;51.220;7.250;2023-01-31T01:12:46;28.02;;;5.07;;
54416;SDS011;40326;51.220;7.250;2023-01-31T01:15:13;20.77;;;4.75;;
54416;SDS011;40326;51.220;7.250;2023-01-31T01:17:38;18.85;;;5.40;;
54416;SDS011;40326;51.220;7.250;2023-01-31T01:20:03;23.35;;;5.30;;
54416;SDS011;40326;51.220;7.250;2023-01-31T01:22:29;24.77;;;4.70;;
54416;SDS011;40326;51.220;7.250;2023-01-31T01:24:54;26.55;;;5.10;;
54416;SDS011;40326;51.220;7.250;2023-01-31T01:27:20;17.45;;;4.80;;
54416;SDS011;40326;51.220;7.250;2023-01-31T01:29:45;28.40;;;5.78;;
54416;SDS011;40326;51.220;7.250;2023-01-31T01:32:10;17.65;;;4.88;;
54416;SDS011;40326;51.220;7.250;2023-01-31T01:34:35;23.95;;;4.80;;
54416;SDS011;40326;51.220;7.250;2023-01-31T01:37:01;24.23;;;4.93;;
54416;SDS011;40326;51.220;7.250;2023-01-31T01:39:33;21.50;;;5.95;;
54416;SDS011;40326;51.220;7.250;2023-01-31T01:41:59;17.92;;;5.82;;
54416;SDS011;40326;51.220;7.250;2023-01-31T01:44:43;20.45;;;5.15;;
54416;SDS011;40326;51.220;7.250;2023-01-31T01:47:13;18.17;;;5.07;;
54416;SDS011;40326;51.220;7.250;2023-01-31T01:49:40;22.77;;;4.93;;
54416;SDS011;40326;51.220;7.250;2023-01-31T01:52:06;33.78;;;5.70;;
54416;SDS011;40326;51.220;7.250;2023-01-31T01:54:35;18.83;;;4.85;;
54416;SDS011;40326;51.220;7.250;2023-01-31T01:57:01;20.50;;;5.72;;
54416;SDS011;40326;51.220;7.250;2023-01-31T01:59:32;20.30;;;5.25;;
54416;SDS011;40326;51.220;7.250;2023-01-31T02:01:58;22.20;;;4.47;;
54416;SDS011;40326;51.220;7.250;2023-01-31T02:04:24;18.85;;;4.60;;
54416;SDS011;40326;51.220;7.250;2023-01-31T02:06:51;21.40;;;5.55;;
54416;SDS011;40326;51.220;7.250;2023-01-31T02:11:54;27.35;;;10.88;;
54416;SDS011;40326;51.220;7.250;2023-01-31T02:14:19;25.85;;;5.55;;
54416;SDS011;40326;51.220;7.250;2023-01-31T02:16:45;15.73;;;4.53;;
54416;SDS011;40326;51.220;7.250;2023-01-31T02:19:19;21.23;;;5.07;;
54416;SDS011;40326;51.220;7.250;2023-01-31T02:24:21;20.75;;;5.55;;
54416;SDS011;40326;51.220;7.250;2023-01-31T02:26:54;23.48;;;5.75;;
54416;SDS011;40326;51.220;7.250;2023-01-31T02:29:50;22.13;;;5.88;;
54416;SDS011;40326;51.220;7.250;2023-01-31T02:34:49;20.52;;;4.45;;
54416;SDS011;40326;51.220;7.250;2023-01-31T02:37:20;23.48;;;5.63;;
54416;SDS011;40326;51.220;7.250;2023-01-31T02:45:03;14.65;;;4.65;;
54416;SDS011;40326;51.220;7.250;2023-01-31T02:47:31;21.27;;;5.05;;
54416;SDS011;40326;51.220;7.250;2023-01-31T02:50:03;19.70;;;4.57;;
54416;SDS011;40326;51.220;7.250;2023-01-31T02:52:35;25.40;;;5.45;;
54416;SDS011;40326;51.220;7.250;2023-01-31T02:55:09;25.90;;;5.32;;
54416;SDS011;40326;51.220;7.250;2023-01-31T02:57:56;21.10;;;4.72;;
54416;SDS011;40326;51.220;7.250;2023-01-31T03:00:21;20.10;;;4.82;;
54416;SDS011;40326;51.220;7.250;2023-01-31T03:02:48;21.27;;;5.38;;
54416;SDS011;40326;51.220;7.250;2023-01-31T03:05:14;20.33;;;4.82;;
54416;SDS011;40326;51.220;7.250;2023-01-31T03:07:39;16.02;;;4.93;;
54416;SDS011;40326;51.220;7.250;2023-01-31T03:20:14;19.80;;;5.20;;
54416;SDS011;40326;51.220;7.250;2023-01-31T03:22:59;20.58;;;4.80;;
54416;SDS011;40326;51.220;7.250;2023-01-31T03:25:26;19.73;;;4.93;;
54416;SDS011;40326;51.220;7.250;2023-01-31T03:27:53;25.20;;;5.07;;
54416;SDS011;40326;51.220;7.250;2023-01-31T03:30:30;19.60;;;4.93;;
54416;SDS011;40326;51.220;7.250;2023-01-31T03:32:58;16.67;;;5.00;;
54416;SDS011;40326;51.220;7.250;2023-01-31T03:35:24;20.40;;;4.70;;
54416;SDS011;40326;51.220;7.250;2023-01-31T03:38:04;22.15;;;6.15;;
54416;SDS011;40326;51.220;7.250;2023-01-31T03:40:34;26.33;;;5.22;;
54416;SDS011;40326;51.220;7.250;2023-01-31T03:45:40;23.15;;;6.05;;
54416;SDS011;40326;51.220;7.250;2023-01-31T03:48:06;20.30;;;5.35;;
54416;SDS011;40326;51.220;7.250;2023-01-31T03:50:38;20.90;;;5.38;;
54416;SDS011;40326;51.220;7.250;2023-01-31T03:53:12;24.80;;;5.45;;
54416;SDS011;40326;51.220;7.250;2023-01-31T03:55:41;19.13;;;5.10;;
54416;SDS011;40326;51.220;7.250;2023-01-31T03:58:07;21.25;;;4.93;;
54416;SDS011;40326;51.220;7.250;2023-01-31T04:00:35;22.52;;;5.10;;
54416;SDS011;40326;51.220;7.250;2023-01-31T04:03:13;16.90;;;4.57;;
54416;SDS011;40326;51.220;7.250;2023-01-31T04:05:40;20.77;;;4.60;;
54416;SDS011;40326;51.220;7.250;2023-01-31T04:08:05;19.77;;;5.47;;
54416;SDS011;40326;51.220;7.250;2023-01-31T04:10:31;26.45;;;5.20;;
54416;SDS011;40326;51.220;7.250;2023-01-31T04:12:56;18.85;;;4.55;;
54416;SDS011;40326;51.220;7.250;2023-01-31T04:15:21;32.05;;;7.95;;
54416;SDS011;40326;51.220;7.250;2023-01-31T04:17:46;20.98;;;5.30;;
54416;SDS011;40326;51.220;7.250;2023-01-31T04:20:12;20.33;;;4.82;;
54416;SDS011;40326;51.220;7.250;2023-01-31T04:22:37;23.80;;;5.30;;
54416;SDS011;40326;51.220;7.250;2023-01-31T04:25:02;19.13;;;4.82;;
54416;SDS011;40326;51.220;7.250;2023-01-31T04:27:28;17.88;;;5.10;;
54416;SDS011;40326;51.220;7.250;2023-01-31T04:29:53;20.50;;;4.57;;
54416;SDS011;40326;51.220;7.250;2023-01-31T04:32:18;20.70;;;5.65;;
54416;SDS011;40326;51.220;7.250;2023-01-31T04:34:43;23.00;;;5.90;;
54416;SDS011;40326;51.220;7.250;2023-01-31T04:37:08;23.15;;;6.10;;
54416;SDS011;40326;51.220;7.250;2023-01-31T04:39:34;21.83;;;6.25;;
54416;SDS011;40326;51.220;7.250;2023-01-31T04:41:59;20.45;;;5.60;;
54416;SDS011;40326;51.220;7.250;2023-01-31T04:44:24;22.20;;;5.68;;
54416;SDS011;40326;51.220;7.250;2023-01-31T04:46:49;25.55;;;6.93;;
54416;SDS011;40326;51.220;7.250;2023-01-31T04:49:14;23.98;;;6.55;;
54416;SDS011;40326;51.220;7.250;2023-01-31T04:51:40;32.13;;;7.03;;
54416;SDS011;40326;51.220;7.250;2023-01-31T04:54:05;28.42;;;8.13;;
54416;SDS011;40326;51.220;7.250;2023-01-31T04:56:30;22.63;;;7.13;;
54416;SDS011;40326;51.220;7.250;2023-01-31T04:58:56;20.60;;;7.43;;
54416;SDS011;40326;51.220;7.250;2023-01-31T05:01:21;21.27;;;7.50;;
54416;SDS011;40326;51.220;7.250;2023-01-31T05:03:47;32.20;;;7.60;;
54416;SDS011;40326;51.220;7.250;2023-01-31T05:06:12;20.13;;;7.47;;
54416;SDS011;40326;51.220;7.250;2023-01-31T05:08:37;28.27;;;8.68;;
54416;SDS011;40326;51.220;7.250;2023-01-31T05:11:02;24.07;;;7.77;;
54416;SDS011;40326;51.220;7.250;2023-01-31T05:13:27;24.00;;;9.70;;
54416;SDS011;40326;51.220;7.250;2023-01-31T05:15:56;33.83;;;12.63;;
54416;SDS011;40326;51.220;7.250;2023-01-31T05:18:24;22.23;;;9.50;;
54416;SDS011;40326;51.220;7.250;2023-01-31T05:20:49;23.38;;;8.50;;
54416;SDS011;40326;51.220;7.250;2023-01-31T05:23:15;21.95;;;8.95;;
54416;SDS011;40326;51.220;7.250;2023-01-31T05:25:41;22.30;;;8.77;;
54416;SDS011;40326;51.220;7.250;2023-01-31T05:28:06;27.10;;;9.82;;
54416;SDS011;40326;51.220;7.250;2023-01-31T05:30:32;28.42;;;9.60;;
54416;SDS011;40326;51.220;7.250;2023-01-31T05:32:57;25.27;;;10.57;;
54416;SDS011;40326;51.220;7.250;2023-01-31T05:35:22;27.92;;;9.05;;
54416;SDS011;40326;51.220;7.250;2023-01-31T05:37:47;26.15;;;8.95;;
54416;SDS011;40326;51.220;7.250;2023-01-31T05:40:13;20.02;;;9.55;;
54416;SDS011;40326;51.220;7.250;2023-01-31T05:42:39;24.90;;;8.40;;
54416;SDS011;40326;51.220;7.250;2023-01-31T05:45:04;25.40;;;10.40;;
54416;SDS011;40326;51.220;7.250;2023-01-31T05:47:30;28.02;;;9.75;;
54416;SDS011;40326;51.220;7.250;2023-01-31T05:49:55;24.35;;;8.98;;
54416;SDS011;40326;51.220;7.250;2023-01-31T05:52:20;27.27;;;9.63;;
54416;SDS011;40326;51.220;7.250;2023-01-31T05:54:45;30.48;;;10.30;;
54416;SDS011;40326;51.220;7.250;2023-01-31T05:57:10;30.10;;;10.63;;
54416;SDS011;40326;51.220;7.250;2023-01-31T05:59:36;25.73;;;9.98;;
54416;SDS011;40326;51.220;7.250;2023-01-31T06:02:01;25.23;;;10.25;;
54416;SDS011;40326;51.220;7.250;2023-01-31T06:04:26;32.42;;;11.35;;
54416;SDS011;40326;51.220;7.250;2023-01-31T06:06:51;29.67;;;11.52;;
54416;SDS011;40326;51.220;7.250;2023-01-31T06:09:16;27.95;;;12.70;;
54416;SDS011;40326;51.220;7.250;2023-01-31T06:11:41;27.27;;;10.85;;
54416;SDS011;40326;51.220;7.250;2023-01-31T06:14:07;29.30;;;10.27;;
54416;SDS011;40326;51.220;7.250;2023-01-31T06:16:32;26.63;;;11.55;;
54416;SDS011;40326;51.220;7.250;2023-01-31T06:18:57;31.02;;;11.73;;
54416;SDS011;40326;51.220;7.250;2023-01-31T06:21:23;28.70;;;11.73;;
54416;SDS011;40326;51.220;7.250;2023-01-31T06:23:48;27.77;;;10.82;;
54416;SDS011;40326;51.220;7.250;2023-01-31T06:26:13;26.80;;;11.50;;
54416;SDS011;40326;51.220;7.250;2023-01-31T06:28:38;33.85;;;12.48;;
54416;SDS011;40326;51.220;7.250;2023-01-31T06:31:07;26.85;;;11.45;;
54416;SDS011;40326;51.220;7.250;2023-01-31T06:33:32;52.72;;;12.23;;
54416;SDS011;40326;51.220;7.250;2023-01-31T06:35:58;30.02;;;12.00;;
54416;SDS011;40326;51.220;7.250;2023-01-31T06:38:23;28.88;;;11.18;;
54416;SDS011;40326;51.220;7.250;2023-01-31T06:40:49;32.75;;;11.57;;
54416;SDS011;40326;51.220;7.250;2023-01-31T06:43:14;30.45;;;11.48;;
54416;SDS011;40326;51.220;7.250;2023-01-31T06:45:41;22.10;;;10.52;;
54416;SDS011;40326;51.220;7.250;2023-01-31T06:48:06;27.17;;;11.32;;
54416;SDS011;40326;51.220;7.250;2023-01-31T06:50:31;27.42;;;10.23;;
54416;SDS011;40326;51.220;7.250;2023-01-31T06:52:57;27.63;;;10.20;;
54416;SDS011;40326;51.220;7.250;2023-01-31T06:55:23;33.80;;;11.75;;
54416;SDS011;40326;51.220;7.250;2023-01-31T06:57:48;33.28;;;10.68;;
54416;SDS011;40326;51.220;7.250;2023-01-31T07:00:14;22.52;;;10.55;;
54416;SDS011;40326;51.220;7.250;2023-01-31T07:02:39;29.75;;;10.38;;
54416;SDS011;40326;51.220;7.250;2023-01-31T07:05:05;28.23;;;10.07;;
54416;SDS011;40326;51.220;7.250;2023-01-31T07:07:30;26.58;;;9.10;;
54416;SDS011;40326;51.220;7.250;2023-01-31T07:09:55;26.63;;;10.55;;
54416;SDS011;40326;51.220;7.250;2023-01-31T07:12:20;27.02;;;10.13;;
54416;SDS011;40326;51.220;7.250;2023-01-31T07:14:46;31.13;;;9.68;;
54416;SDS011;40326;51.220;7.250;2023-01-31T07:17:11;29.25;;;9.15;;
54416;SDS011;40326;51.220;7.250;2023-01-31T07:19:36;26.45;;;9.45;;
54416;SDS011;40326;51.220;7.250;2023-01-31T07:22:01;27.75;;;9.50;;
54416;SDS011;40326;51.220;7.250;2023-01-31T07:24:26;22.33;;;8.80;;
54416;SDS011;40326;51.220;7.250;2023-01-31T07:26:52;24.07;;;9.17;;
54416;SDS011;40326;51.220;7.250;2023-01-31T07:29:18;29.75;;;8.85;;
54416;SDS011;40326;51.220;7.250;2023-01-31T07:31:43;23.77;;;8.88;;
54416;SDS011;40326;51.220;7.250;2023-01-31T07:34:08;21.48;;;8.98;;
54416;SDS011;40326;51.220;7.250;2023-01-31T07:36:33;22.88;;;7.78;;
54416;SDS011;40326;51.220;7.250;2023-01-31T07:38:58;25.85;;;8.18;;
54416;SDS011;40326;51.220;7.250;2023-01-31T07:41:25;27.75;;;9.20;;
54416;SDS011;40326;51.220;7.250;2023-01-31T07:43:51;21.33;;;8.55;;
54416;SDS011;40326;51.220;7.250;2023-01-31T07:46:16;25.65;;;8.10;;
54416;SDS011;40326;51.220;7.250;2023-01-31T07:48:41;22.52;;;8.35;;
54416;SDS011;40326;51.220;7.250;2023-01-31T07:51:07;23.88;;;7.82;;
54416;SDS011;40326;51.220;7.250;2023-01-31T07:53:33;22.80;;;7.35;;
54416;SDS011;40326;51.220;7.250;2023-01-31T07:56:05;17.83;;;7.03;;
54416;SDS011;40326;51.220;7.250;2023-01-31T07:58:32;18.92;;;6.88;;
54416;SDS011;40326;51.220;7.250;2023-01-31T08:00:57;22.20;;;7.93;;
54416;SDS011;40326;51.220;7.250;2023-01-31T08:06:10;21.83;;;6.78;;
54416;SDS011;40326;51.220;7.250;2023-01-31T08:08:36;19.52;;;7.03;;
54416;SDS011;40326;51.220;7.250;2023-01-31T08:11:01;19.35;;;6.53;;
54416;SDS011;40326;51.220;7.250;2023-01-31T08:13:29;22.33;;;7.07;;
54416;SDS011;40326;51.220;7.250;2023-01-31T08:15:54;20.10;;;7.00;;
54416;SDS011;40326;51.220;7.250;2023-01-31T08:18:19;14.18;;;5.55;;
54416;SDS011;40326;51.220;7.250;2023-01-31T08:20:45;23.25;;;6.75;;
54416;SDS011;40326;51.220;7.250;2023-01-31T08:23:10;21.13;;;6.70;;
54416;SDS011;40326;51.220;7.250;2023-01-31T08:25:35;21.05;;;5.55;;
54416;SDS011;40326;51.220;7.250;2023-01-31T08:28:01;18.20;;;5.60;;
54416;SDS011;40326;51.220;7.250;2023-01-31T08:30:26;23.10;;;5.88;;
54416;SDS011;40326;51.220;7.250;2023-01-31T08:32:52;15.07;;;6.00;;
54416;SDS011;40326;51.220;7.250;2023-01-31T08:35:17;20.17;;;5.43;;
54416;SDS011;40326;51.220;7.250;2023-01-31T08:37:42;18.80;;;6.35;;
54416;SDS011;40326;51.220;7.250;2023-01-31T08:40:07;15.93;;;5.20;;
54416;SDS011;40326;51.220;7.250;2023-01-31T08:42:33;14.77;;;5.18;;
54416;SDS011;40326;51.220;7.250;2023-01-31T08:44:58;15.80;;;5.05;;
54416;SDS011;40326;51.220;7.250;2023-01-31T08:47:23;15.55;;;5.30;;
54416;SDS011;40326;51.220;7.250;2023-01-31T08:49:48;14.50;;;5.00;;
54416;SDS011;40326;51.220;7.250;2023-01-31T08:52:14;12.55;;;4.78;;
54416;SDS011;40326;51.220;7.250;2023-01-31T08:54:39;15.50;;;5.00;;
54416;SDS011;40326;51.220;7.250;2023-01-31T08:57:04;20.77;;;5.35;;
54416;SDS011;40326;51.220;7.250;2023-01-31T08:59:29;14.68;;;4.53;;
54416;SDS011;40326;51.220;7.250;2023-01-31T09:01:55;15.90;;;4.43;;
54416;SDS011;40326;51.220;7.250;2023-01-31T09:04:20;12.82;;;4.22;;
54416;SDS011;40326;51.220;7.250;2023-01-31T09:06:45;19.65;;;4.88;;
54416;SDS011;40326;51.220;7.250;2023-01-31T09:09:10;13.48;;;5.30;;
54416;SDS011;40326;51.220;7.250;2023-01-31T09:11:35;15.48;;;4.53;;
54416;SDS011;40326;51.220;7.250;2023-01-31T09:14:01;15.10;;;4.90;;
54416;SDS011;40326;51.220;7.250;2023-01-31T09:16:26;15.95;;;4.50;;
54416;SDS011;40326;51.220;7.250;2023-01-31T09:18:51;17.08;;;4.43;;
54416;SDS011;40326;51.220;7.250;2023-01-31T09:21:18;22.10;;;5.28;;
54416;SDS011;40326;51.220;7.250;2023-01-31T09:23:44;15.80;;;4.80;;
54416;SDS011;40326;51.220;7.250;2023-01-31T09:26:12;17.58;;;4.50;;
54416;SDS011;40326;51.220;7.250;2023-01-31T09:28:37;17.27;;;4.82;;
54416;SDS011;40326;51.220;7.250;2023-01-31T09:31:07;20.83;;;5.45;;
54416;SDS011;40326;51.220;7.250;2023-01-31T09:33:32;12.98;;;4.95;;
54416;SDS011;40326;51.220;7.250;2023-01-31T09:35:59;15.75;;;4.43;;
54416;SDS011;40326;51.220;7.250;2023-01-31T09:38:24;13.02;;;4.97;;
54416;SDS011;40326;51.220;7.250;2023-01-31T09:40:50;14.30;;;4.68;;
54416;SDS011;40326;51.220;7.250;2023-01-31T09:43:17;16.08;;;5.68;;
54416;SDS011;40326;51.220;7.250;2023-01-31T09:45:43;19.02;;;4.63;;
54416;SDS011;40326;51.220;7.250;2023-01-31T09:48:13;17.52;;;5.45;;
54416;SDS011;40326;51.220;7.250;2023-01-31T09:50:39;13.85;;;5.22;;
54416;SDS011;40326;51.220;7.250;2023-01-31T09:53:09;15.73;;;5.53;;
54416;SDS011;40326;51.220;7.250;2023-01-31T10:00:55;14.43;;;5.25;;
54416;SDS011;40326;51.220;7.250;2023-01-31T10:10:52;19.30;;;6.68;;
54416;SDS011;40326;51.220;7.250;2023-01-31T10:13:42;18.30;;;6.78;;
54416;SDS011;40326;51.220;7.250;2023-01-31T10:19:06;17.75;;;6.82;;
54416;SDS011;40326;51.220;7.250;2023-01-31T10:21:40;22.23;;;7.97;;
54416;SDS011;40326;51.220;7.250;2023-01-31T10:26:35;16.30;;;6.97;;
54416;SDS011;40326;51.220;7.250;2023-01-31T10:29:05;16.23;;;6.13;;
54416;SDS011;40326;51.220;7.250;2023-01-31T10:31:38;15.25;;;6.75;;
54416;SDS011;40326;51.220;7.250;2023-01-31T10:36:39;15.82;;;6.97;;
54416;SDS011;40326;51.220;7.250;2023-01-31T10:39:17;19.10;;;7.15;;
54416;SDS011;40326;51.220;7.250;2023-01-31T10:44:26;18.83;;;8.45;;
54416;SDS011;40326;51.220;7.250;2023-01-31T10:46:56;15.65;;;8.02;;
54416;SDS011;40326;51.220;7.250;2023-01-31T10:49:22;18.45;;;7.88;;
54416;SDS011;40326;51.220;7.250;2023-01-31T10:51:55;16.88;;;7.18;;
54416;SDS011;40326;51.220;7.250;2023-01-31T10:56:57;15.45;;;7.15;;
54416;SDS011;40326;51.220;7.250;2023-01-31T11:01:54;20.67;;;8.10;;
54416;SDS011;40326;51.220;7.250;2023-01-31T11:04:23;17.38;;;8.10;;
54416;SDS011;40326;51.220;7.250;2023-01-31T11:06:49;19.38;;;9.32;;
54416;SDS011;40326;51.220;7.250;2023-01-31T11:09:15;24.15;;;9.85;;
54416;SDS011;40326;51.220;7.250;2023-01-31T11:11:56;20.75;;;8.38;;
54416;SDS011;40326;51.220;7.250;2023-01-31T11:14:22;25.27;;;9.18;;
54416;SDS011;40326;51.220;7.250;2023-01-31T11:16:47;21.42;;;9.65;;
54416;SDS011;40326;51.220;7.250;2023-01-31T11:19:17;27.52;;;10.45;;
54416;SDS011;40326;51.220;7.250;2023-01-31T11:21:47;17.50;;;8.73;;
54416;SDS011;40326;51.220;7.250;2023-01-31T11:24:14;22.38;;;8.18;;
54416;SDS011;40326;51.220;7.250;2023-01-31T11:26:41;19.70;;;8.13;;
54416;SDS011;40326;51.220;7.250;2023-01-31T11:29:16;24.88;;;8.70;;
54416;SDS011;40326;51.220;7.250;2023-01-31T11:31:42;17.88;;;8.70;;
54416;SDS011;40326;51.220;7.250;2023-01-31T11:34:32;18.83;;;9.27;;
54416;SDS011;40326;51.220;7.250;2023-01-31T11:37:14;24.15;;;9.55;;
54416;SDS011;40326;51.220;7.250;2023-01-31T11:39:39;19.73;;;8.15;;
54416;SDS011;40326;51.220;7.250;2023-01-31T11:42:14;19.13;;;8.48;;
54416;SDS011;40326;51.220;7.250;2023-01-31T11:47:25;19.60;;;8.45;;
54416;SDS011;40326;51.220;7.250;2023-01-31T11:49:51;18.30;;;8.55;;
54416;SDS011;40326;51.220;7.250;2023-01-31T11:52:20;24.02;;;9.15;;
54416;SDS011;40326;51.220;7.250;2023-01-31T11:54:48;22.98;;;9.63;;
54416;SDS011;40326;51.220;7.250;2023-01-31T11:57:15;20.38;;;9.23;;
54416;SDS011;40326;51.220;7.250;2023-01-31T11:59:41;24.17;;;8.50;;
54416;SDS011;40326;51.220;7.250;2023-01-31T12:02:12;19.70;;;9.90;;
54416;SDS011;40326;51.220;7.250;2023-01-31T12:04:44;22.85;;;9.13;;
54416;SDS011;40326;51.220;7.250;2023-01-31T12:07:23;21.23;;;9.70;;
54416;SDS011;40326;51.220;7.250;2023-01-31T12:09:48;16.33;;;8.65;;
54416;SDS011;40326;51.220;7.250;2023-01-31T12:12:22;18.02;;;9.68;;
54416;SDS011;40326;51.220;7.250;2023-01-31T12:14:48;21.80;;;9.57;;
54416;SDS011;40326;51.220;7.250;2023-01-31T12:17:14;20.55;;;11.00;;
54416;SDS011;40326;51.220;7.250;2023-01-31T12:22:20;21.47;;;10.43;;
54416;SDS011;40326;51.220;7.250;2023-01-31T12:24:57;20.00;;;11.35;;
54416;SDS011;40326;51.220;7.250;2023-01-31T12:30:02;17.80;;;10.45;;
54416;SDS011;40326;51.220;7.250;2023-01-31T12:32:42;20.63;;;11.13;;
54416;SDS011;40326;51.220;7.250;2023-01-31T12:35:25;21.67;;;10.70;;
54416;SDS011;40326;51.220;7.250;2023-01-31T12:40:33;19.50;;;11.32;;
54416;SDS011;40326;51.220;7.250;2023-01-31T12:43:01;20.85;;;12.07;;
54416;SDS011;40326;51.220;7.250;2023-01-31T13:00:56;21.77;;;14.10;;
54416;SDS011;40326;51.220;7.250;2023-01-31T13:06:06;28.05;;;14.70;;
54416;SDS011;40326;51.220;7.250;2023-01-31T13:08:33;22.30;;;14.82;;
54416;SDS011;40326;51.220;7.250;2023-01-31T13:11:07;27.83;;;14.13;;
54416;SDS011;40326;51.220;7.250;2023-01-31T13:13:49;25.10;;;16.73;;
54416;SDS011;40326;51.220;7.250;2023-01-31T13:16:23;24.70;;;15.23;;
54416;SDS011;40326;51.220;7.250;2023-01-31T13:18:51;31.25;;;17.35;;
54416;SDS011;40326;51.220;7.250;2023-01-31T13:21:18;27.52;;;16.38;;
54416;SDS011;40326;51.220;7.250;2023-01-31T13:23:45;27.88;;;16.55;;
54416;SDS011;40326;51.220;7.250;2023-01-31T13:26:20;24.77;;;15.00;;
54416;SDS011;40326;51.220;7.250;2023-01-31T13:28:58;30.42;;;15.77;;
54416;SDS011;40326;51.220;7.250;2023-01-31T13:31:25;31.42;;;16.83;;
54416;SDS011;40326;51.220;7.250;2023-01-31T13:33:53;29.80;;;16.42;;
54416;SDS011;40326;51.220;7.250;2023-01-31T13:39:12;27.63;;;16.98;;
54416;SDS011;40326;51.220;7.250;2023-01-31T13:41:38;25.92;;;15.48;;
54416;SDS011;40326;51.220;7.250;2023-01-31T13:44:04;29.27;;;16.58;;
54416;SDS011;40326;51.220;7.250;2023-01-31T13:46:33;27.85;;;17.48;;
54416;SDS011;40326;51.220;7.250;2023-01-31T13:49:02;29.48;;;16.08;;
54416;SDS011;40326;51.220;7.250;2023-01-31T13:51:49;29.35;;;17.33;;
54416;SDS011;40326;51.220;7.250;2023-01-31T13:54:34;22.60;;;15.63;;
54416;SDS011;40326;51.220;7.250;2023-01-31T13:57:01;24.35;;;16.80;;
54416;SDS011;40326;51.220;7.250;2023-01-31T13:59:28;27.05;;;17.35;;
54416;SDS011;40326;51.220;7.250;2023-01-31T14:01:55;17.67;;;15.20;;
54416;SDS011;40326;51.220;7.250;2023-01-31T14:04:24;20.95;;;14.93;;
54416;SDS011;40326;51.220;7.250;2023-01-31T14:09:33;21.98;;;16.33;;
54416;SDS011;40326;51.220;7.250;2023-01-31T14:11:59;22.73;;;15.80;;
54416;SDS011;40326;51.220;7.250;2023-01-31T14:16:54;20.15;;;14.35;;
54416;SDS011;40326;51.220;7.250;2023-01-31T14:24:19;18.58;;;13.15;;
54416;SDS011;40326;51.220;7.250;2023-01-31T14:29:17;24.40;;;14.82;;
54416;SDS011;40326;51.220;7.250;2023-01-31T14:31:43;19.08;;;14.02;;
54416;SDS011;40326;51.220;7.250;2023-01-31T14:34:22;20.33;;;15.35;;
54416;SDS011;40326;51.220;7.250;2023-01-31T14:36:54;23.90;;;17.55;;
54416;SDS011;40326;51.220;7.250;2023-01-31T14:39:25;27.67;;;17.88;;
54416;SDS011;40326;51.220;7.250;2023-01-31T14:42:09;26.45;;;18.33;;
54416;SDS011;40326;51.220;7.250;2023-01-31T14:44:44;28.80;;;18.17;;
54416;SDS011;40326;51.220;7.250;2023-01-31T14:52:14;25.37;;;17.30;;
54416;SDS011;40326;51.220;7.250;2023-01-31T14:57:30;27.45;;;19.85;;
54416;SDS011;40326;51.220;7.250;2023-01-31T14:59:57;24.67;;;19.60;;
54416;SDS011;40326;51.220;7.250;2023-01-31T15:05:24;133.90;;;82.83;;
54416;SDS011;40326;51.220;7.250;2023-01-31T15:15:59;29.15;;;22.40;;
54416;SDS011;40326;51.220;7.250;2023-01-31T15:18:25;32.20;;;25.65;;
54416;SDS011;40326;51.220;7.250;2023-01-31T15:20:54;38.05;;;26.15;;
54416;SDS011;40326;51.220;7.250;2023-01-31T15:23:24;31.48;;;24.60;;
54416;SDS011;40326;51.220;7.250;2023-01-31T15:25:50;32.17;;;25.50;;
54416;SDS011;40326;51.220;7.250;2023-01-31T15:28:17;33.08;;;23.05;;
54416;SDS011;40326;51.220;7.250;2023-01-31T15:30:43;39.90;;;30.67;;
54416;SDS011;40326;51.220;7.250;2023-01-31T15:43:38;41.88;;;28.27;;
54416;SDS011;40326;51.220;7.250;2023-01-31T15:48:40;40.22;;;28.52;;
54416;SDS011;40326;51.220;7.250;2023-01-31T15:51:05;46.28;;;31.83;;
54416;SDS011;40326;51.220;7.250;2023-01-31T15:53:30;58.63;;;31.63;;
54416;SDS011;40326;51.220;7.250;2023-01-31T15:55:56;49.42;;;30.52;;
54416;SDS011;40326;51.220;7.250;2023-01-31T15:58:23;63.85;;;33.13;;
54416;SDS011;40326;51.220;7.250;2023-01-31T16:00:53;73.43;;;33.45;;
54416;SDS011;40326;51.220;7.250;2023-01-31T16:03:20;42.95;;;30.25;;
54416;SDS011;40326;51.220;7.250;2023-01-31T16:05:49;41.78;;;30.10;;
54416;SDS011;40326;51.220;7.250;2023-01-31T16:08:31;54.35;;;31.45;;
54416;SDS011;40326;51.220;7.250;2023-01-31T16:11:00;64.05;;;29.77;;
54416;SDS011;40326;51.220;7.250;2023-01-31T16:13:26;46.45;;;32.53;;
54416;SDS011;40326;51.220;7.250;2023-01-31T16:15:52;42.85;;;29.70;;
54416;SDS011;40326;51.220;7.250;2023-01-31T16:18:17;41.28;;;28.60;;
54416;SDS011;40326;51.220;7.250;2023-01-31T16:20:52;47.80;;;29.27;;
54416;SDS011;40326;51.220;7.250;2023-01-31T16:23:23;40.22;;;29.75;;
54416;SDS011;40326;51.220;7.250;2023-01-31T16:25:49;39.60;;;26.10;;
54416;SDS011;40326;51.220;7.250;2023-01-31T16:28:17;39.30;;;24.58;;
54416;SDS011;40326;51.220;7.250;2023-01-31T16:30:42;39.35;;;26.33;;
54416;SDS011;40326;51.220;7.250;2023-01-31T16:33:14;39.47;;;28.02;;
54416;SDS011;40326;51.220;7.250;2023-01-31T16:35:39;41.20;;;27.75;;
54416;SDS011;40326;51.220;7.250;2023-01-31T16:38:15;45.60;;;30.75;;
54416;SDS011;40326;51.220;7.250;2023-01-31T16:40:46;38.08;;;26.65;;
54416;SDS011;40326;51.220;7.250;2023-01-31T16:43:21;42.45;;;26.83;;
54416;SDS011;40326;51.220;7.250;2023-01-31T16:45:50;43.10;;;26.45;;
54416;SDS011;40326;51.220;7.250;2023-01-31T16:48:21;39.22;;;26.48;;